sensor_id;sensor_type;location;lat;lon;timestamp;temperature;humidity
42147;DHT22;27815;43.410;11.852;2022-09-27T00:01:48;16.90;76.30
42147;DHT22;27815;43.410;11.852;2022-09-27T00:06:01;17.00;76.40
42147;DHT22;27815;43.410;11.852;2022-09-27T00:10:04;17.00;76.60
42147;DHT22;27815;43.410;11.852;2022-09-27T00:14:07;17.00;76.50
42147;DHT22;27815;43.410;11.852;2022-09-27T00:18:12;17.10;76.50
42147;DHT22;27815;43.410;11.852;2022-09-27T00:22:15;17.10;76.50
42147;DHT22;27815;43.410;11.852;2022-09-27T00:26:17;17.20;76.30
42147;DHT22;27815;43.410;11.852;2022-09-27T00:30:21;17.20;76.30
42147;DHT22;27815;43.410;11.852;2022-09-27T00:34:24;17.30;76.10
42147;DHT22;27815;43.410;11.852;2022-09-27T00:38:27;17.30;75.90
42147;DHT22;27815;43.410;11.852;2022-09-27T00:42:30;17.40;75.80
42147;DHT22;27815;43.410;11.852;2022-09-27T00:46:40;17.40;75.60
42147;DHT22;27815;43.410;11.852;2022-09-27T00:50:48;17.40;75.50
42147;DHT22;27815;43.410;11.852;2022-09-27T00:54:56;17.30;75.40
42147;DHT22;27815;43.410;11.852;2022-09-27T00:59:18;17.30;75.40
42147;DHT22;27815;43.410;11.852;2022-09-27T01:03:50;17.30;75.20
42147;DHT22;27815;43.410;11.852;2022-09-27T01:07:51;17.20;75.30
42147;DHT22;27815;43.410;11.852;2022-09-27T01:12:13;17.20;75.10
42147;DHT22;27815;43.410;11.852;2022-09-27T01:16:40;17.10;75.10
42147;DHT22;27815;43.410;11.852;2022-09-27T01:29:51;17.00;75.00
42147;DHT22;27815;43.410;11.852;2022-09-27T01:38:40;16.90;75.10
42147;DHT22;27815;43.410;11.852;2022-09-27T01:47:04;16.80;75.70
42147;DHT22;27815;43.410;11.852;2022-09-27T01:51:49;16.70;75.80
42147;DHT22;27815;43.410;11.852;2022-09-27T01:55:54;16.60;75.60
42147;DHT22;27815;43.410;11.852;2022-09-27T02:00:21;16.50;76.00
42147;DHT22;27815;43.410;11.852;2022-09-27T02:04:31;16.30;76.40
42147;DHT22;27815;43.410;11.852;2022-09-27T02:08:52;16.30;76.80
42147;DHT22;27815;43.410;11.852;2022-09-27T02:13:22;16.30;77.00
42147;DHT22;27815;43.410;11.852;2022-09-27T02:18:01;16.20;77.00
42147;DHT22;27815;43.410;11.852;2022-09-27T02:22:35;16.30;77.40
42147;DHT22;27815;43.410;11.852;2022-09-27T02:26:43;16.40;77.30
42147;DHT22;27815;43.410;11.852;2022-09-27T02:30:47;16.50;77.40
42147;DHT22;27815;43.410;11.852;2022-09-27T02:34:58;16.50;77.30
42147;DHT22;27815;43.410;11.852;2022-09-27T02:39:03;16.50;77.10
42147;DHT22;27815;43.410;11.852;2022-09-27T02:43:07;16.40;77.00
42147;DHT22;27815;43.410;11.852;2022-09-27T02:47:26;16.40;77.10
42147;DHT22;27815;43.410;11.852;2022-09-27T02:56:13;16.20;78.10
42147;DHT22;27815;43.410;11.852;2022-09-27T03:00:29;16.30;78.50
42147;DHT22;27815;43.410;11.852;2022-09-27T03:05:00;16.40;78.50
42147;DHT22;27815;43.410;11.852;2022-09-27T03:09:04;16.50;78.20
42147;DHT22;27815;43.410;11.852;2022-09-27T03:13:07;16.50;77.90
42147;DHT22;27815;43.410;11.852;2022-09-27T03:17:10;16.50;78.10
42147;DHT22;27815;43.410;11.852;2022-09-27T03:21:48;16.50;78.00
42147;DHT22;27815;43.410;11.852;2022-09-27T03:25:51;16.50;78.10
42147;DHT22;27815;43.410;11.852;2022-09-27T03:29:55;16.50;77.90
42147;DHT22;27815;43.410;11.852;2022-09-27T03:33:57;16.50;77.70
42147;DHT22;27815;43.410;11.852;2022-09-27T03:38:01;16.50;77.40
42147;DHT22;27815;43.410;11.852;2022-09-27T03:42:04;16.60;77.30
42147;DHT22;27815;43.410;11.852;2022-09-27T03:46:08;16.60;77.20
42147;DHT22;27815;43.410;11.852;2022-09-27T03:50:12;16.60;77.10
42147;DHT22;27815;43.410;11.852;2022-09-27T03:54:15;16.60;77.00
42147;DHT22;27815;43.410;11.852;2022-09-27T03:58:18;16.70;76.80
42147;DHT22;27815;43.410;11.852;2022-09-27T04:02:22;16.70;76.80
42147;DHT22;27815;43.410;11.852;2022-09-27T04:06:43;16.80;76.80
42147;DHT22;27815;43.410;11.852;2022-09-27T04:10:46;16.80;76.60
42147;DHT22;27815;43.410;11.852;2022-09-27T04:14:48;16.90;75.50
42147;DHT22;27815;43.410;11.852;2022-09-27T04:19:17;17.00;74.70
42147;DHT22;27815;43.410;11.852;2022-09-27T04:23:36;17.00;74.20
42147;DHT22;27815;43.410;11.852;2022-09-27T04:27:44;17.00;75.10
42147;DHT22;27815;43.410;11.852;2022-09-27T04:31:48;16.80;76.30
42147;DHT22;27815;43.410;11.852;2022-09-27T04:35:51;16.60;76.70
42147;DHT22;27815;43.410;11.852;2022-09-27T04:40:15;16.60;77.20
42147;DHT22;27815;43.410;11.852;2022-09-27T04:44:18;16.50;77.50
42147;DHT22;27815;43.410;11.852;2022-09-27T04:48:24;16.50;77.30
42147;DHT22;27815;43.410;11.852;2022-09-27T04:52:28;16.60;76.80
42147;DHT22;27815;43.410;11.852;2022-09-27T04:56:30;16.60;76.40
42147;DHT22;27815;43.410;11.852;2022-09-27T05:00:35;16.70;76.30
42147;DHT22;27815;43.410;11.852;2022-09-27T05:04:58;16.70;76.30
42147;DHT22;27815;43.410;11.852;2022-09-27T05:09:07;16.70;76.20
42147;DHT22;27815;43.410;11.852;2022-09-27T05:13:24;16.70;76.20
42147;DHT22;27815;43.410;11.852;2022-09-27T05:17:27;16.70;76.00
42147;DHT22;27815;43.410;11.852;2022-09-27T05:21:48;16.70;75.90
42147;DHT22;27815;43.410;11.852;2022-09-27T05:25:52;16.60;75.60
42147;DHT22;27815;43.410;11.852;2022-09-27T05:29:58;16.70;75.50
42147;DHT22;27815;43.410;11.852;2022-09-27T05:34:15;16.70;75.60
42147;DHT22;27815;43.410;11.852;2022-09-27T05:38:31;16.60;75.80
42147;DHT22;27815;43.410;11.852;2022-09-27T05:42:37;16.50;75.60
42147;DHT22;27815;43.410;11.852;2022-09-27T05:46:41;16.40;76.20
42147;DHT22;27815;43.410;11.852;2022-09-27T05:50:44;16.30;76.30
42147;DHT22;27815;43.410;11.852;2022-09-27T05:54:47;16.30;76.40
42147;DHT22;27815;43.410;11.852;2022-09-27T05:58:51;16.50;75.60
42147;DHT22;27815;43.410;11.852;2022-09-27T06:03:05;16.60;75.10
42147;DHT22;27815;43.410;11.852;2022-09-27T06:07:32;16.80;74.60
42147;DHT22;27815;43.410;11.852;2022-09-27T06:11:37;16.80;73.90
42147;DHT22;27815;43.410;11.852;2022-09-27T06:15:47;17.00;73.20
42147;DHT22;27815;43.410;11.852;2022-09-27T06:19:53;17.00;72.60
42147;DHT22;27815;43.410;11.852;2022-09-27T06:23:56;17.10;71.80
42147;DHT22;27815;43.410;11.852;2022-09-27T06:28:06;17.30;71.10
42147;DHT22;27815;43.410;11.852;2022-09-27T06:32:12;17.40;70.50
42147;DHT22;27815;43.410;11.852;2022-09-27T06:36:36;17.50;70.10
42147;DHT22;27815;43.410;11.852;2022-09-27T06:40:40;17.60;69.90
42147;DHT22;27815;43.410;11.852;2022-09-27T06:45:01;17.60;69.60
42147;DHT22;27815;43.410;11.852;2022-09-27T06:49:25;17.50;68.50
42147;DHT22;27815;43.410;11.852;2022-09-27T06:53:28;17.60;68.30
42147;DHT22;27815;43.410;11.852;2022-09-27T06:57:31;17.60;67.40
42147;DHT22;27815;43.410;11.852;2022-09-27T07:02:04;17.70;67.20
42147;DHT22;27815;43.410;11.852;2022-09-27T07:06:24;17.70;67.30
42147;DHT22;27815;43.410;11.852;2022-09-27T07:10:35;17.70;67.10
42147;DHT22;27815;43.410;11.852;2022-09-27T07:14:39;17.80;67.30
42147;DHT22;27815;43.410;11.852;2022-09-27T07:18:47;17.90;67.50
42147;DHT22;27815;43.410;11.852;2022-09-27T07:22:52;17.90;67.10
42147;DHT22;27815;43.410;11.852;2022-09-27T07:26:58;18.00;67.50
42147;DHT22;27815;43.410;11.852;2022-09-27T07:31:03;18.00;67.30
42147;DHT22;27815;43.410;11.852;2022-09-27T07:35:07;18.10;67.00
42147;DHT22;27815;43.410;11.852;2022-09-27T07:39:13;18.20;66.60
42147;DHT22;27815;43.410;11.852;2022-09-27T07:43:17;18.20;66.40
42147;DHT22;27815;43.410;11.852;2022-09-27T07:47:26;18.10;66.60
42147;DHT22;27815;43.410;11.852;2022-09-27T07:51:55;18.10;66.90
42147;DHT22;27815;43.410;11.852;2022-09-27T07:56:24;18.00;67.50
42147;DHT22;27815;43.410;11.852;2022-09-27T08:00:29;18.00;67.90
42147;DHT22;27815;43.410;11.852;2022-09-27T08:04:32;18.00;68.00
42147;DHT22;27815;43.410;11.852;2022-09-27T08:08:36;18.00;68.20
42147;DHT22;27815;43.410;11.852;2022-09-27T08:12:39;18.00;68.70
42147;DHT22;27815;43.410;11.852;2022-09-27T08:16:42;18.00;69.20
42147;DHT22;27815;43.410;11.852;2022-09-27T08:20:49;18.00;69.70
42147;DHT22;27815;43.410;11.852;2022-09-27T08:25:07;18.00;70.40
42147;DHT22;27815;43.410;11.852;2022-09-27T08:29:10;18.00;71.20
42147;DHT22;27815;43.410;11.852;2022-09-27T08:33:18;18.00;71.80
42147;DHT22;27815;43.410;11.852;2022-09-27T08:37:21;18.00;72.10
42147;DHT22;27815;43.410;11.852;2022-09-27T08:54:29;18.00;75.00
42147;DHT22;27815;43.410;11.852;2022-09-27T08:58:36;18.00;75.50
42147;DHT22;27815;43.410;11.852;2022-09-27T09:02:50;18.10;75.70
42147;DHT22;27815;43.410;11.852;2022-09-27T09:15:44;18.90;74.10
42147;DHT22;27815;43.410;11.852;2022-09-27T09:21:08;19.30;72.20
42147;DHT22;27815;43.410;11.852;2022-09-27T09:33:35;19.70;69.30
42147;DHT22;27815;43.410;11.852;2022-09-27T09:37:51;19.70;69.80
42147;DHT22;27815;43.410;11.852;2022-09-27T09:42:28;19.70;70.10
42147;DHT22;27815;43.410;11.852;2022-09-27T09:46:40;19.80;70.20
42147;DHT22;27815;43.410;11.852;2022-09-27T09:50:51;19.90;70.20
42147;DHT22;27815;43.410;11.852;2022-09-27T09:59:37;20.40;67.40
42147;DHT22;27815;43.410;11.852;2022-09-27T10:03:43;20.70;66.50
42147;DHT22;27815;43.410;11.852;2022-09-27T10:07:48;20.80;66.30
42147;DHT22;27815;43.410;11.852;2022-09-27T10:11:53;21.00;65.80
42147;DHT22;27815;43.410;11.852;2022-09-27T10:16:09;21.20;66.50
42147;DHT22;27815;43.410;11.852;2022-09-27T10:24:55;21.30;64.10
42147;DHT22;27815;43.410;11.852;2022-09-27T10:29:30;21.30;63.40
42147;DHT22;27815;43.410;11.852;2022-09-27T10:33:55;21.50;64.80
42147;DHT22;27815;43.410;11.852;2022-09-27T10:38:24;22.00;63.30
42147;DHT22;27815;43.410;11.852;2022-09-27T10:42:37;22.00;63.30
42147;DHT22;27815;43.410;11.852;2022-09-27T10:46:47;21.60;62.60
42147;DHT22;27815;43.410;11.852;2022-09-27T10:51:24;21.50;63.60
42147;DHT22;27815;43.410;11.852;2022-09-27T10:55:34;21.40;63.90
42147;DHT22;27815;43.410;11.852;2022-09-27T10:59:41;21.40;64.00
42147;DHT22;27815;43.410;11.852;2022-09-27T11:03:48;21.30;64.80
42147;DHT22;27815;43.410;11.852;2022-09-27T11:07:53;21.40;62.80
42147;DHT22;27815;43.410;11.852;2022-09-27T11:12:07;21.50;61.90
42147;DHT22;27815;43.410;11.852;2022-09-27T11:20:55;20.80;65.60
42147;DHT22;27815;43.410;11.852;2022-09-27T11:25:14;20.00;67.80
42147;DHT22;27815;43.410;11.852;2022-09-27T12:09:35;20.40;70.80
42147;DHT22;27815;43.410;11.852;2022-09-27T12:22:13;20.50;69.90
42147;DHT22;27815;43.410;11.852;2022-09-27T12:26:39;20.50;70.50
42147;DHT22;27815;43.410;11.852;2022-09-27T12:30:52;20.00;70.70
42147;DHT22;27815;43.410;11.852;2022-09-27T12:35:24;19.20;72.50
42147;DHT22;27815;43.410;11.852;2022-09-27T12:44:02;19.50;73.40
42147;DHT22;27815;43.410;11.852;2022-09-27T12:48:42;19.60;72.90
42147;DHT22;27815;43.410;11.852;2022-09-27T12:52:52;19.50;72.70
42147;DHT22;27815;43.410;11.852;2022-09-27T12:57:01;19.80;72.70
42147;DHT22;27815;43.410;11.852;2022-09-27T13:01:18;19.90;72.30
42147;DHT22;27815;43.410;11.852;2022-09-27T13:05:34;19.80;71.90
42147;DHT22;27815;43.410;11.852;2022-09-27T13:13:55;19.60;71.40
42147;DHT22;27815;43.410;11.852;2022-09-27T13:18:01;19.60;71.10
42147;DHT22;27815;43.410;11.852;2022-09-27T13:26:55;19.90;71.10
42147;DHT22;27815;43.410;11.852;2022-09-27T13:36:43;20.40;69.40
42147;DHT22;27815;43.410;11.852;2022-09-27T13:40:47;20.40;69.10
42147;DHT22;27815;43.410;11.852;2022-09-27T13:45:14;20.40;68.50
42147;DHT22;27815;43.410;11.852;2022-09-27T13:49:41;20.50;68.20
42147;DHT22;27815;43.410;11.852;2022-09-27T13:54:38;20.50;66.50
42147;DHT22;27815;43.410;11.852;2022-09-27T13:59:04;20.50;67.20
42147;DHT22;27815;43.410;11.852;2022-09-27T14:03:44;20.50;66.70
42147;DHT22;27815;43.410;11.852;2022-09-27T14:07:50;20.50;65.30
42147;DHT22;27815;43.410;11.852;2022-09-27T14:12:25;20.50;64.70
42147;DHT22;27815;43.410;11.852;2022-09-27T14:16:48;20.50;64.90
42147;DHT22;27815;43.410;11.852;2022-09-27T14:25:47;20.40;66.10
42147;DHT22;27815;43.410;11.852;2022-09-27T14:29:59;20.30;67.40
42147;DHT22;27815;43.410;11.852;2022-09-27T14:34:11;20.20;68.20
42147;DHT22;27815;43.410;11.852;2022-09-27T14:38:20;20.10;69.00
42147;DHT22;27815;43.410;11.852;2022-09-27T14:43:04;20.00;69.40
42147;DHT22;27815;43.410;11.852;2022-09-27T14:47:23;19.70;69.80
42147;DHT22;27815;43.410;11.852;2022-09-27T14:51:41;19.50;69.90
42147;DHT22;27815;43.410;11.852;2022-09-27T14:55:44;19.30;70.90
42147;DHT22;27815;43.410;11.852;2022-09-27T14:59:47;19.00;71.90
42147;DHT22;27815;43.410;11.852;2022-09-27T15:03:50;18.80;72.60
42147;DHT22;27815;43.410;11.852;2022-09-27T15:07:57;18.60;73.00
42147;DHT22;27815;43.410;11.852;2022-09-27T15:12:01;18.70;72.60
42147;DHT22;27815;43.410;11.852;2022-09-27T15:16:22;18.80;72.20
42147;DHT22;27815;43.410;11.852;2022-09-27T15:20:31;18.80;71.10
42147;DHT22;27815;43.410;11.852;2022-09-27T15:24:38;18.80;70.90
42147;DHT22;27815;43.410;11.852;2022-09-27T15:28:55;18.80;70.80
42147;DHT22;27815;43.410;11.852;2022-09-27T15:33:25;18.80;70.70
42147;DHT22;27815;43.410;11.852;2022-09-27T15:37:45;18.90;71.20
42147;DHT22;27815;43.410;11.852;2022-09-27T15:42:10;19.00;71.80
42147;DHT22;27815;43.410;11.852;2022-09-27T15:46:37;19.10;71.70
42147;DHT22;27815;43.410;11.852;2022-09-27T15:50:50;19.10;71.60
42147;DHT22;27815;43.410;11.852;2022-09-27T15:54:58;19.20;71.70
42147;DHT22;27815;43.410;11.852;2022-09-27T15:59:25;19.40;70.30
42147;DHT22;27815;43.410;11.852;2022-09-27T16:03:43;19.70;68.80
42147;DHT22;27815;43.410;11.852;2022-09-27T16:08:02;20.00;67.60
42147;DHT22;27815;43.410;11.852;2022-09-27T16:12:20;20.20;66.40
42147;DHT22;27815;43.410;11.852;2022-09-27T16:16:42;20.00;66.60
42147;DHT22;27815;43.410;11.852;2022-09-27T16:21:05;20.00;65.50
42147;DHT22;27815;43.410;11.852;2022-09-27T16:25:28;20.00;66.50
42147;DHT22;27815;43.410;11.852;2022-09-27T16:29:56;20.00;64.80
42147;DHT22;27815;43.410;11.852;2022-09-27T16:34:00;20.00;64.60
42147;DHT22;27815;43.410;11.852;2022-09-27T16:38:09;19.90;65.00
42147;DHT22;27815;43.410;11.852;2022-09-27T16:42:26;19.90;65.90
42147;DHT22;27815;43.410;11.852;2022-09-27T16:46:29;19.90;65.10
42147;DHT22;27815;43.410;11.852;2022-09-27T16:50:37;19.80;65.40
42147;DHT22;27815;43.410;11.852;2022-09-27T16:54:59;19.60;66.60
42147;DHT22;27815;43.410;11.852;2022-09-27T16:59:03;19.40;64.70
42147;DHT22;27815;43.410;11.852;2022-09-27T17:03:11;19.20;64.60
42147;DHT22;27815;43.410;11.852;2022-09-27T17:07:28;19.10;65.20
42147;DHT22;27815;43.410;11.852;2022-09-27T17:11:45;18.90;65.90
42147;DHT22;27815;43.410;11.852;2022-09-27T17:16:04;18.70;66.90
42147;DHT22;27815;43.410;11.852;2022-09-27T17:20:21;18.60;67.10
42147;DHT22;27815;43.410;11.852;2022-09-27T17:24:29;18.40;67.50
42147;DHT22;27815;43.410;11.852;2022-09-27T17:28:34;18.20;67.50
42147;DHT22;27815;43.410;11.852;2022-09-27T17:32:44;18.10;67.30
42147;DHT22;27815;43.410;11.852;2022-09-27T17:36:48;18.10;67.90
42147;DHT22;27815;43.410;11.852;2022-09-27T17:41:08;18.00;68.10
42147;DHT22;27815;43.410;11.852;2022-09-27T17:45:15;18.00;67.00
42147;DHT22;27815;43.410;11.852;2022-09-27T17:49:18;17.90;67.50
42147;DHT22;27815;43.410;11.852;2022-09-27T17:53:39;17.80;67.10
42147;DHT22;27815;43.410;11.852;2022-09-27T17:57:43;17.80;68.00
42147;DHT22;27815;43.410;11.852;2022-09-27T18:01:48;17.80;66.80
42147;DHT22;27815;43.410;11.852;2022-09-27T18:05:53;17.80;66.90
42147;DHT22;27815;43.410;11.852;2022-09-27T18:09:58;17.70;67.20
42147;DHT22;27815;43.410;11.852;2022-09-27T18:14:05;17.50;67.10
42147;DHT22;27815;43.410;11.852;2022-09-27T18:18:09;17.50;67.20
42147;DHT22;27815;43.410;11.852;2022-09-27T18:22:14;17.50;67.60
42147;DHT22;27815;43.410;11.852;2022-09-27T18:26:33;17.40;67.20
42147;DHT22;27815;43.410;11.852;2022-09-27T18:30:47;17.30;67.30
42147;DHT22;27815;43.410;11.852;2022-09-27T18:34:55;17.20;67.50
42147;DHT22;27815;43.410;11.852;2022-09-27T18:39:01;17.20;67.50
42147;DHT22;27815;43.410;11.852;2022-09-27T18:43:06;17.10;68.00
42147;DHT22;27815;43.410;11.852;2022-09-27T18:47:15;16.90;68.00
42147;DHT22;27815;43.410;11.852;2022-09-27T18:51:21;16.90;68.20
42147;DHT22;27815;43.410;11.852;2022-09-27T18:55:38;16.80;68.30
42147;DHT22;27815;43.410;11.852;2022-09-27T18:59:43;16.60;68.60
42147;DHT22;27815;43.410;11.852;2022-09-27T19:03:54;16.60;68.80
42147;DHT22;27815;43.410;11.852;2022-09-27T19:08:00;16.60;68.50
42147;DHT22;27815;43.410;11.852;2022-09-27T19:12:05;16.80;68.40
42147;DHT22;27815;43.410;11.852;2022-09-27T19:16:12;16.90;68.20
42147;DHT22;27815;43.410;11.852;2022-09-27T19:21:17;16.90;68.80
42147;DHT22;27815;43.410;11.852;2022-09-27T19:25:21;16.80;68.70
42147;DHT22;27815;43.410;11.852;2022-09-27T19:29:25;16.70;69.60
42147;DHT22;27815;43.410;11.852;2022-09-27T19:33:34;16.60;69.70
42147;DHT22;27815;43.410;11.852;2022-09-27T19:37:48;16.70;69.80
42147;DHT22;27815;43.410;11.852;2022-09-27T19:42:07;16.60;70.00
42147;DHT22;27815;43.410;11.852;2022-09-27T19:46:25;16.60;70.00
42147;DHT22;27815;43.410;11.852;2022-09-27T19:50:30;16.60;69.90
42147;DHT22;27815;43.410;11.852;2022-09-27T19:54:50;16.60;69.90
42147;DHT22;27815;43.410;11.852;2022-09-27T19:59:10;16.70;70.40
42147;DHT22;27815;43.410;11.852;2022-09-27T20:03:17;16.70;70.40
42147;DHT22;27815;43.410;11.852;2022-09-27T20:07:26;16.60;70.30
42147;DHT22;27815;43.410;11.852;2022-09-27T20:11:30;16.80;69.40
42147;DHT22;27815;43.410;11.852;2022-09-27T20:15:34;16.90;69.50
42147;DHT22;27815;43.410;11.852;2022-09-27T20:19:42;16.90;69.50
42147;DHT22;27815;43.410;11.852;2022-09-27T20:23:51;16.80;69.90
42147;DHT22;27815;43.410;11.852;2022-09-27T20:28:00;16.70;70.00
42147;DHT22;27815;43.410;11.852;2022-09-27T20:32:04;16.70;70.30
42147;DHT22;27815;43.410;11.852;2022-09-27T20:36:32;16.60;70.40
42147;DHT22;27815;43.410;11.852;2022-09-27T20:40:41;16.50;70.90
42147;DHT22;27815;43.410;11.852;2022-09-27T20:44:55;16.50;71.00
42147;DHT22;27815;43.410;11.852;2022-09-27T20:49:07;16.50;71.00
42147;DHT22;27815;43.410;11.852;2022-09-27T20:53:12;16.50;71.10
42147;DHT22;27815;43.410;11.852;2022-09-27T20:57:15;16.40;71.40
42147;DHT22;27815;43.410;11.852;2022-09-27T21:01:19;16.30;71.50
42147;DHT22;27815;43.410;11.852;2022-09-27T21:05:24;16.40;71.80
42147;DHT22;27815;43.410;11.852;2022-09-27T21:09:27;16.30;71.80
42147;DHT22;27815;43.410;11.852;2022-09-27T21:13:31;16.20;72.10
42147;DHT22;27815;43.410;11.852;2022-09-27T21:17:34;16.10;72.40
42147;DHT22;27815;43.410;11.852;2022-09-27T21:21:37;16.00;72.40
42147;DHT22;27815;43.410;11.852;2022-09-27T21:25:44;16.10;72.50
42147;DHT22;27815;43.410;11.852;2022-09-27T21:29:47;16.00;72.60
42147;DHT22;27815;43.410;11.852;2022-09-27T21:34:01;16.10;72.40
42147;DHT22;27815;43.410;11.852;2022-09-27T21:38:05;16.00;72.60
42147;DHT22;27815;43.410;11.852;2022-09-27T21:42:08;15.90;73.10
42147;DHT22;27815;43.410;11.852;2022-09-27T21:46:13;15.80;73.00
42147;DHT22;27815;43.410;11.852;2022-09-27T21:50:16;15.70;73.30
42147;DHT22;27815;43.410;11.852;2022-09-27T21:54:19;15.50;73.50
42147;DHT22;27815;43.410;11.852;2022-09-27T21:58:22;15.50;73.90
42147;DHT22;27815;43.410;11.852;2022-09-27T22:02:25;15.50;73.90
42147;DHT22;27815;43.410;11.852;2022-09-27T22:06:33;15.50;74.00
42147;DHT22;27815;43.410;11.852;2022-09-27T22:10:36;15.60;74.10
42147;DHT22;27815;43.410;11.852;2022-09-27T22:14:40;15.60;74.10
42147;DHT22;27815;43.410;11.852;2022-09-27T22:18:45;15.60;74.00
42147;DHT22;27815;43.410;11.852;2022-09-27T22:22:48;15.60;74.00
42147;DHT22;27815;43.410;11.852;2022-09-27T22:26:53;15.70;73.90
42147;DHT22;27815;43.410;11.852;2022-09-27T22:30:56;15.70;73.90
42147;DHT22;27815;43.410;11.852;2022-09-27T22:35:05;15.80;73.80
42147;DHT22;27815;43.410;11.852;2022-09-27T22:39:08;15.80;73.70
42147;DHT22;27815;43.410;11.852;2022-09-27T22:43:12;15.90;73.60
42147;DHT22;27815;43.410;11.852;2022-09-27T22:47:15;15.90;73.60
42147;DHT22;27815;43.410;11.852;2022-09-27T22:51:18;16.00;73.60
42147;DHT22;27815;43.410;11.852;2022-09-27T22:55:21;16.00;73.60
42147;DHT22;27815;43.410;11.852;2022-09-27T22:59:25;16.00;73.50
42147;DHT22;27815;43.410;11.852;2022-09-27T23:03:28;15.90;73.40
42147;DHT22;27815;43.410;11.852;2022-09-27T23:07:33;15.90;73.50
42147;DHT22;27815;43.410;11.852;2022-09-27T23:11:36;15.80;73.30
42147;DHT22;27815;43.410;11.852;2022-09-27T23:15:43;15.40;73.40
42147;DHT22;27815;43.410;11.852;2022-09-27T23:19:47;15.20;73.90
42147;DHT22;27815;43.410;11.852;2022-09-27T23:23:51;15.00;74.10
42147;DHT22;27815;43.410;11.852;2022-09-27T23:27:54;14.90;74.60
42147;DHT22;27815;43.410;11.852;2022-09-27T23:32:03;15.00;74.80
42147;DHT22;27815;43.410;11.852;2022-09-27T23:36:08;14.80;74.80
42147;DHT22;27815;43.410;11.852;2022-09-27T23:40:12;14.60;75.10
42147;DHT22;27815;43.410;11.852;2022-09-27T23:44:25;14.60;75.50
42147;DHT22;27815;43.410;11.852;2022-09-27T23:48:29;14.50;75.50
42147;DHT22;27815;43.410;11.852;2022-09-27T23:52:32;14.40;75.60
42147;DHT22;27815;43.410;11.852;2022-09-27T23:56:36;14.30;75.90
